createdAt,value
2018-11-05T00:00:38.956Z,771.00
2018-11-05T00:01:39.400Z,772.00
2018-11-05T00:02:39.728Z,773.00
2018-11-05T00:03:40.113Z,772.00
2018-11-05T00:04:40.483Z,772.00
2018-11-05T00:05:40.776Z,772.00
2018-11-05T00:06:41.173Z,773.00
2018-11-05T00:07:41.691Z,773.00
2018-11-05T00:08:41.943Z,772.00
2018-11-05T00:09:42.213Z,772.00
2018-11-05T00:10:42.492Z,772.00
2018-11-05T00:11:42.949Z,772.00
2018-11-05T00:12:43.310Z,771.00
2018-11-05T00:13:43.643Z,772.00
2018-11-05T00:14:44.092Z,772.00
2018-11-05T00:15:44.859Z,772.00
2018-11-05T00:16:45.397Z,772.00
2018-11-05T00:17:45.756Z,772.00
2018-11-05T00:18:46.066Z,772.00
2018-11-05T00:19:46.505Z,773.00
2018-11-05T00:20:46.784Z,773.00
2018-11-05T00:21:47.274Z,773.00
2018-11-05T00:22:47.309Z,772.00
2018-11-05T00:23:47.984Z,773.00
2018-11-05T00:24:48.400Z,773.00
2018-11-05T00:25:48.948Z,772.00
2018-11-05T00:26:49.610Z,772.00
2018-11-05T00:27:49.884Z,772.00
2018-11-05T00:27:58.416Z,772.00
2018-11-05T00:28:58.967Z,774.00
2018-11-05T00:29:59.625Z,773.00
2018-11-05T00:30:59.878Z,773.00
2018-11-05T00:32:00.518Z,774.00
2018-11-05T00:33:01.071Z,775.00
2018-11-05T00:34:01.575Z,774.00
2018-11-05T00:35:02.105Z,773.00
2018-11-05T00:36:02.627Z,773.00
2018-11-05T00:37:02.936Z,773.00
2018-11-05T00:38:03.218Z,773.00
2018-11-05T00:39:03.515Z,773.00
2018-11-05T00:40:03.969Z,774.00
2018-11-05T00:41:04.416Z,774.00
2018-11-05T00:42:05.177Z,774.00
2018-11-05T00:43:05.512Z,774.00
2018-11-05T00:44:05.825Z,773.00
2018-11-05T00:45:06.275Z,772.00
2018-11-05T00:46:06.708Z,772.00
2018-11-05T00:47:06.897Z,772.00
2018-11-05T00:48:07.451Z,773.00
2018-11-05T00:49:07.744Z,772.00
2018-11-05T00:50:08.047Z,771.00
2018-11-05T00:51:08.408Z,773.00
2018-11-05T00:52:08.629Z,772.00
2018-11-05T00:53:08.852Z,773.00
2018-11-05T00:54:09.624Z,772.00
2018-11-05T00:55:10.130Z,774.00
2018-11-05T00:56:10.686Z,773.00
2018-11-05T00:57:10.952Z,773.00
2018-11-05T00:58:11.555Z,774.00
2018-11-05T00:59:11.806Z,776.00
2018-11-05T01:00:12.125Z,776.00
2018-11-05T01:01:12.480Z,775.00
2018-11-05T01:02:12.982Z,775.00
2018-11-05T01:03:12.203Z,776.00
2018-11-05T01:04:13.598Z,775.00
2018-11-05T01:05:14.014Z,774.00
2018-11-05T01:06:14.943Z,774.00
2018-11-05T01:07:15.504Z,774.00
2018-11-05T01:08:15.946Z,774.00
2018-11-05T01:09:16.715Z,774.00
2018-11-05T01:10:17.188Z,773.00
2018-11-05T01:11:17.654Z,773.00
2018-11-05T01:12:18.029Z,772.00
2018-11-05T01:13:18.476Z,773.00
2018-11-05T01:14:19.209Z,773.00
2018-11-05T01:14:27.626Z,773.00
2018-11-05T01:15:28.696Z,773.00
2018-11-05T01:16:29.213Z,773.00
2018-11-05T01:17:29.529Z,773.00
2018-11-05T01:18:30.127Z,773.00
2018-11-05T01:19:30.425Z,773.00
2018-11-05T01:20:30.982Z,772.00
2018-11-05T01:21:31.731Z,773.00
2018-11-05T01:22:32.122Z,774.00
2018-11-05T01:23:32.499Z,775.00
2018-11-05T01:24:33.057Z,775.00
2018-11-05T01:25:33.586Z,774.00
2018-11-05T01:26:34.116Z,773.00
2018-11-05T01:27:34.401Z,773.00
2018-11-05T01:28:34.835Z,773.00
2018-11-05T01:29:35.279Z,772.00
2018-11-05T01:30:36.147Z,772.00
2018-11-05T01:31:36.232Z,774.00
2018-11-05T01:32:36.596Z,773.00
2018-11-05T01:33:37.230Z,773.00
2018-11-05T01:34:37.652Z,772.00
2018-11-05T01:35:37.955Z,773.00
2018-11-05T01:36:38.340Z,773.00
2018-11-05T01:37:38.641Z,774.00
2018-11-05T01:38:38.873Z,773.00
2018-11-05T01:39:39.528Z,773.00
2018-11-05T01:40:39.905Z,773.00
2018-11-05T01:41:40.285Z,773.00
2018-11-05T01:42:40.555Z,773.00
2018-11-05T01:43:40.951Z,775.00
2018-11-05T01:44:41.169Z,775.00
2018-11-05T01:45:41.577Z,775.00
2018-11-05T01:46:41.967Z,775.00
2018-11-05T01:47:42.438Z,774.00
2018-11-05T01:48:42.930Z,774.00
2018-11-05T01:49:43.209Z,773.00
2018-11-05T01:50:43.582Z,773.00
2018-11-05T01:51:43.909Z,774.00
2018-11-05T01:52:44.405Z,773.00
2018-11-05T01:53:44.814Z,773.00
2018-11-05T01:54:45.182Z,773.00
2018-11-05T01:55:45.461Z,773.00
2018-11-05T01:56:46.412Z,772.00
2018-11-05T01:57:46.771Z,773.00
2018-11-05T01:58:45.982Z,773.00
2018-11-05T01:59:47.450Z,773.00
2018-11-05T01:59:56.012Z,773.00
2018-11-05T02:00:57.336Z,773.00
2018-11-05T02:01:57.588Z,775.00
2018-11-05T02:02:57.878Z,775.00
2018-11-05T02:03:58.176Z,776.00
2018-11-05T02:04:58.999Z,775.00
2018-11-05T02:05:59.332Z,776.00
2018-11-05T02:06:59.646Z,775.00
2018-11-05T02:07:59.966Z,774.00
2018-11-05T02:09:00.590Z,774.00
2018-11-05T02:10:01.165Z,775.00
2018-11-05T02:11:00.436Z,774.00
2018-11-05T02:12:02.051Z,775.00
2018-11-05T02:13:02.915Z,775.00
2018-11-05T02:14:03.344Z,774.00
2018-11-05T02:15:03.814Z,774.00
2018-11-05T02:16:04.468Z,774.00
2018-11-05T02:17:03.679Z,775.00
2018-11-05T02:18:04.929Z,773.00
2018-11-05T02:19:05.389Z,774.00
2018-11-05T02:20:06.158Z,774.00
2018-11-05T02:21:06.450Z,772.00
2018-11-05T02:22:06.719Z,774.00
2018-11-05T02:23:07.265Z,776.00
2018-11-05T02:24:07.888Z,778.00
2018-11-05T02:25:08.559Z,782.00
2018-11-05T02:26:08.210Z,782.00
2018-11-05T02:27:10.230Z,782.00
2018-11-05T02:28:09.462Z,782.00
2018-11-05T02:29:10.903Z,780.00
2018-11-05T02:30:11.469Z,778.00
2018-11-05T02:31:11.764Z,778.00
2018-11-05T02:32:12.365Z,776.00
2018-11-05T02:33:12.731Z,775.00
2018-11-05T02:34:13.287Z,774.00
2018-11-05T02:35:13.798Z,774.00
2018-11-05T02:36:14.351Z,773.00
2018-11-05T02:37:14.755Z,773.00
2018-11-05T02:38:15.108Z,773.00
2018-11-05T02:39:15.505Z,773.00
2018-11-05T02:40:15.892Z,773.00
2018-11-05T02:41:16.297Z,773.00
2018-11-05T02:42:16.622Z,774.00
2018-11-05T02:43:17.411Z,776.00
2018-11-05T02:44:17.865Z,774.00
2018-11-05T02:45:18.150Z,774.00
2018-11-05T02:46:18.584Z,774.00
2018-11-05T02:47:19.269Z,773.00
2018-11-05T02:47:30.842Z,773.00
2018-11-05T02:48:32.833Z,773.00
2018-11-05T02:49:32.285Z,773.00
2018-11-05T02:50:32.797Z,773.00
2018-11-05T02:51:33.376Z,773.00
2018-11-05T02:52:33.692Z,774.00
2018-11-05T02:53:34.029Z,773.00
2018-11-05T02:54:34.695Z,774.00
2018-11-05T02:55:34.763Z,774.00
2018-11-05T02:56:35.150Z,773.00
2018-11-05T02:57:35.576Z,774.00
2018-11-05T02:58:35.882Z,774.00
2018-11-05T02:59:36.231Z,774.00
2018-11-05T03:00:36.544Z,774.00
2018-11-05T03:01:36.933Z,775.00
2018-11-05T03:02:37.331Z,778.00
2018-11-05T03:03:37.720Z,780.00
2018-11-05T03:04:37.972Z,780.00
2018-11-05T03:05:38.500Z,781.00
2018-11-05T03:06:39.057Z,780.00
2018-11-05T03:07:38.295Z,778.00
2018-11-05T03:08:39.833Z,777.00
2018-11-05T03:09:40.350Z,775.00
2018-11-05T03:10:40.785Z,774.00
2018-11-05T03:11:41.125Z,774.00
2018-11-05T03:12:41.810Z,774.00
2018-11-05T03:13:42.249Z,773.00
2018-11-05T03:14:42.762Z,773.00
2018-11-05T03:15:43.251Z,773.00
2018-11-05T03:16:43.377Z,774.00
2018-11-05T03:17:43.699Z,774.00
2018-11-05T03:18:42.983Z,774.00
2018-11-05T03:19:44.405Z,773.00
2018-11-05T03:20:44.946Z,772.00
2018-11-05T03:21:45.915Z,773.00
2018-11-05T03:22:46.484Z,773.00
2018-11-05T03:23:46.809Z,772.00
2018-11-05T03:24:47.445Z,772.00
2018-11-05T03:25:47.893Z,772.00
2018-11-05T03:26:47.436Z,773.00
2018-11-05T03:27:48.797Z,773.00
2018-11-05T03:28:48.100Z,773.00
2018-11-05T03:29:49.775Z,775.00
2018-11-05T03:30:50.240Z,778.00
2018-11-05T03:31:50.747Z,778.00
2018-11-05T03:32:51.024Z,782.00
2018-11-05T03:33:51.458Z,781.00
2018-11-05T03:34:51.908Z,782.00
2018-11-05T03:35:52.416Z,784.00
2018-11-05T03:36:51.670Z,783.00
2018-11-05T03:37:00.619Z,783.00
2018-11-05T03:38:00.931Z,781.00
2018-11-05T03:39:01.393Z,780.00
2018-11-05T03:40:01.657Z,776.00
2018-11-05T03:41:01.999Z,775.00
2018-11-05T03:42:02.263Z,774.00
2018-11-05T03:43:02.577Z,774.00
2018-11-05T03:44:02.756Z,774.00
2018-11-05T03:45:03.024Z,776.00
2018-11-05T03:46:03.507Z,775.00
2018-11-05T03:47:04.349Z,774.00
2018-11-05T03:48:04.571Z,773.00
2018-11-05T03:49:04.794Z,773.00
2018-11-05T03:50:05.144Z,774.00
2018-11-05T03:51:05.561Z,773.00
2018-11-05T03:52:05.989Z,772.00
2018-11-05T03:53:06.237Z,773.00
2018-11-05T03:54:06.756Z,775.00
2018-11-05T03:55:07.158Z,774.00
2018-11-05T03:56:07.750Z,775.00
2018-11-05T03:57:06.979Z,777.00
2018-11-05T03:58:08.476Z,778.00
2018-11-05T03:59:08.732Z,775.00
2018-11-05T04:00:08.988Z,774.00
2018-11-05T04:01:09.328Z,774.00
2018-11-05T04:02:09.820Z,774.00
2018-11-05T04:03:10.510Z,775.00
2018-11-05T04:04:09.836Z,777.00
2018-11-05T04:05:11.130Z,780.00
2018-11-05T04:06:11.608Z,775.00
2018-11-05T04:07:11.114Z,775.00
2018-11-05T04:08:12.388Z,775.00
2018-11-05T04:09:12.697Z,774.00
2018-11-05T04:10:12.931Z,773.00
2018-11-05T04:11:13.205Z,773.00
2018-11-05T04:12:13.542Z,773.00
2018-11-05T04:13:13.817Z,772.00
2018-11-05T04:14:14.072Z,772.00
2018-11-05T04:15:14.376Z,772.00
2018-11-05T04:16:14.780Z,772.00
2018-11-05T04:17:15.314Z,772.00
2018-11-05T04:18:15.761Z,773.00
2018-11-05T04:19:16.045Z,773.00
2018-11-05T04:20:16.329Z,774.00
2018-11-05T04:21:16.597Z,774.00
2018-11-05T04:22:16.888Z,773.00
2018-11-05T04:22:24.945Z,773.00
2018-11-05T04:23:26.394Z,773.00
2018-11-05T04:24:26.737Z,773.00
2018-11-05T04:25:27.068Z,772.00
2018-11-05T04:26:27.593Z,772.00
2018-11-05T04:27:28.245Z,772.00
2018-11-05T04:28:28.510Z,772.00
2018-11-05T04:29:28.876Z,773.00
2018-11-05T04:30:29.290Z,773.00
2018-11-05T04:31:29.586Z,773.00
2018-11-05T04:32:29.935Z,772.00
2018-11-05T04:33:30.193Z,772.00
2018-11-05T04:34:30.499Z,772.00
2018-11-05T04:35:30.882Z,772.00
2018-11-05T04:36:31.261Z,772.00
2018-11-05T04:37:31.358Z,771.00
2018-11-05T04:38:31.857Z,772.00
2018-11-05T04:39:32.227Z,772.00
2018-11-05T04:40:32.645Z,772.00
2018-11-05T04:41:33.124Z,773.00
2018-11-05T04:42:33.643Z,773.00
2018-11-05T04:43:33.989Z,773.00
2018-11-05T04:44:34.241Z,773.00
2018-11-05T04:45:33.608Z,773.00
2018-11-05T04:46:33.869Z,773.00
2018-11-05T04:47:35.143Z,773.00
2018-11-05T04:48:35.557Z,772.00
2018-11-05T04:49:35.839Z,772.00
2018-11-05T04:50:36.195Z,773.00
2018-11-05T04:51:36.474Z,772.00
2018-11-05T04:52:36.754Z,773.00
2018-11-05T04:53:37.135Z,774.00
2018-11-05T04:54:37.409Z,773.00
2018-11-05T04:55:38.005Z,773.00
2018-11-05T04:56:38.329Z,772.00
2018-11-05T04:57:38.925Z,772.00
2018-11-05T04:58:38.128Z,772.00
2018-11-05T04:59:39.452Z,772.00
2018-11-05T05:00:39.865Z,772.00
2018-11-05T05:01:40.405Z,772.00
2018-11-05T05:02:41.009Z,773.00
2018-11-05T05:03:41.441Z,775.00
2018-11-05T05:04:41.844Z,775.00
2018-11-05T05:05:42.357Z,774.00
2018-11-05T05:06:41.604Z,774.00
2018-11-05T05:07:43.187Z,774.00
2018-11-05T05:08:42.460Z,773.00
2018-11-05T05:09:43.819Z,773.00
2018-11-05T05:10:43.157Z,773.00
2018-11-05T05:10:51.567Z,772.00
2018-11-05T05:11:52.688Z,773.00
2018-11-05T05:12:52.944Z,773.00
2018-11-05T05:13:53.829Z,773.00
2018-11-05T05:14:53.124Z,773.00
2018-11-05T05:15:54.748Z,773.00
2018-11-05T05:16:55.481Z,773.00
2018-11-05T05:17:55.834Z,772.00
2018-11-05T05:18:56.103Z,773.00
2018-11-05T05:19:56.533Z,772.00
2018-11-05T05:20:57.062Z,772.00
2018-11-05T05:21:57.079Z,774.00
2018-11-05T05:22:57.649Z,774.00
2018-11-05T05:23:56.784Z,775.00
2018-11-05T05:24:58.089Z,774.00
2018-11-05T05:25:58.427Z,773.00
2018-11-05T05:26:58.829Z,773.00
2018-11-05T05:27:59.125Z,773.00
2018-11-05T05:29:00.052Z,773.00
2018-11-05T05:30:00.351Z,773.00
2018-11-05T05:31:00.784Z,773.00
2018-11-05T05:32:01.040Z,773.00
2018-11-05T05:33:01.414Z,773.00
2018-11-05T05:34:00.609Z,772.00
2018-11-05T05:35:01.939Z,772.00
2018-11-05T05:36:02.219Z,773.00
2018-11-05T05:37:02.604Z,774.00
2018-11-05T05:38:03.013Z,774.00
2018-11-05T05:39:04.297Z,773.00
2018-11-05T05:40:03.566Z,773.00
2018-11-05T05:41:04.132Z,772.00
2018-11-05T05:42:03.456Z,772.00
2018-11-05T05:43:04.703Z,772.00
2018-11-05T05:44:05.286Z,772.00
2018-11-05T05:45:05.738Z,773.00
2018-11-05T05:46:06.141Z,772.00
2018-11-05T05:47:06.754Z,773.00
2018-11-05T05:48:06.989Z,772.00
2018-11-05T05:49:07.327Z,772.00
2018-11-05T05:50:07.780Z,771.00
2018-11-05T05:51:06.944Z,772.00
2018-11-05T05:52:08.361Z,772.00
2018-11-05T05:53:09.319Z,772.00
2018-11-05T05:54:09.649Z,772.00
2018-11-05T05:55:10.086Z,773.00
2018-11-05T05:56:10.393Z,773.00
2018-11-05T05:57:10.658Z,774.00
2018-11-05T05:58:11.145Z,774.00
2018-11-05T05:59:11.695Z,773.00
2018-11-05T05:59:20.477Z,773.00
2018-11-05T06:00:21.913Z,773.00
2018-11-05T06:01:22.453Z,772.00
2018-11-05T06:02:22.847Z,772.00
2018-11-05T06:03:23.448Z,773.00
2018-11-05T06:04:23.711Z,773.00
2018-11-05T06:05:24.674Z,773.00
2018-11-05T06:06:26.151Z,772.00
2018-11-05T06:07:24.573Z,772.00
2018-11-05T06:08:25.824Z,773.00
2018-11-05T06:09:26.165Z,774.00
2018-11-05T06:10:26.497Z,774.00
2018-11-05T06:11:26.766Z,774.00
2018-11-05T06:12:27.189Z,773.00
2018-11-05T06:13:59.143Z,773.00
2018-11-05T06:14:59.544Z,774.00
2018-11-05T06:16:01.140Z,775.00
2018-11-05T06:17:00.585Z,774.00
2018-11-05T06:18:01.952Z,774.00
2018-11-05T06:19:02.254Z,774.00
2018-11-05T06:20:04.005Z,773.00
2018-11-05T06:21:03.620Z,773.00
2018-11-05T06:22:03.907Z,773.00
2018-11-05T06:23:04.281Z,773.00
2018-11-05T06:24:04.842Z,774.00
2018-11-05T06:25:05.298Z,775.00
2018-11-05T06:26:05.691Z,774.00
2018-11-05T06:27:06.234Z,773.00
2018-11-05T06:28:06.725Z,773.00
2018-11-05T06:29:07.103Z,772.00
2018-11-05T06:30:07.444Z,773.00
2018-11-05T06:31:07.860Z,774.00
2018-11-05T06:32:08.289Z,773.00
2018-11-05T06:33:09.217Z,773.00
2018-11-05T06:34:09.485Z,772.00
2018-11-05T06:35:10.073Z,773.00
2018-11-05T06:36:09.696Z,772.00
2018-11-05T06:37:11.115Z,773.00
2018-11-05T06:38:11.356Z,773.00
2018-11-05T06:39:11.817Z,772.00
2018-11-05T06:40:12.098Z,772.00
2018-11-05T06:41:12.539Z,772.00
2018-11-05T06:42:12.204Z,772.00
2018-11-05T06:43:13.680Z,773.00
2018-11-05T06:44:14.219Z,772.00
2018-11-05T06:45:13.441Z,772.00
2018-11-05T06:46:13.890Z,772.00
2018-11-05T06:47:15.244Z,772.00
2018-11-05T06:48:15.652Z,772.00
2018-11-05T06:49:15.215Z,772.00
2018-11-05T06:50:16.450Z,772.00
2018-11-05T06:51:16.893Z,771.00
2018-11-05T06:52:17.257Z,772.00
2018-11-05T06:53:18.493Z,772.00
2018-11-05T06:54:17.813Z,772.00
2018-11-05T06:55:18.087Z,772.00
2018-11-05T06:56:18.438Z,772.00
2018-11-05T06:57:18.777Z,771.00
2018-11-05T06:58:19.053Z,773.00
2018-11-05T06:59:19.783Z,772.00
2018-11-05T07:00:20.084Z,772.00
2018-11-05T07:00:28.495Z,771.00
2018-11-05T07:01:28.758Z,771.00
2018-11-05T07:02:30.190Z,771.00
2018-11-05T07:03:29.372Z,771.00
2018-11-05T07:04:30.705Z,772.00
2018-11-05T07:05:31.278Z,772.00
2018-11-05T07:06:31.617Z,771.00
2018-11-05T07:07:31.877Z,770.00
2018-11-05T07:08:32.597Z,770.00
2018-11-05T07:09:32.757Z,770.00
2018-11-05T07:10:33.195Z,772.00
2018-11-05T07:11:34.184Z,772.00
2018-11-05T07:12:33.264Z,772.00
2018-11-05T07:13:34.868Z,772.00
2018-11-05T07:14:35.253Z,771.00
2018-11-05T07:15:35.890Z,770.00
2018-11-05T07:16:36.238Z,770.00
2018-11-05T07:17:36.490Z,770.00
2018-11-05T07:18:36.899Z,770.00
2018-11-05T07:19:36.354Z,771.00
2018-11-05T07:20:36.434Z,770.00
2018-11-05T07:21:37.689Z,770.00
2018-11-05T07:22:37.924Z,770.00
2018-11-05T07:23:38.245Z,770.00
2018-11-05T07:24:39.023Z,770.00
2018-11-05T07:25:40.314Z,770.00
2018-11-05T07:26:40.069Z,770.00
2018-11-05T07:27:39.380Z,772.00
2018-11-05T07:28:39.742Z,773.00
2018-11-05T07:29:41.005Z,772.00
2018-11-05T07:30:41.353Z,772.00
2018-11-05T07:31:41.741Z,770.00
2018-11-05T07:32:42.409Z,770.00
2018-11-05T07:33:42.983Z,770.00
2018-11-05T07:34:42.406Z,770.00
2018-11-05T07:35:43.675Z,770.00
2018-11-05T07:36:43.996Z,770.00
2018-11-05T07:37:44.253Z,770.00
2018-11-05T07:38:44.692Z,769.00
2018-11-05T07:39:44.969Z,770.00
2018-11-05T07:40:46.468Z,770.00
2018-11-05T07:41:45.767Z,770.00
2018-11-05T07:42:46.135Z,773.00
2018-11-05T07:43:46.454Z,772.00
2018-11-05T07:44:46.674Z,770.00
2018-11-05T07:45:46.993Z,770.00
2018-11-05T07:46:47.476Z,770.00
2018-11-05T07:47:47.755Z,770.00
2018-11-05T07:48:48.239Z,770.00
2018-11-05T07:49:48.579Z,770.00
2018-11-05T07:50:49.154Z,769.00
2018-11-05T07:51:48.351Z,770.00
2018-11-05T07:52:49.890Z,769.00
2018-11-05T07:52:58.016Z,769.00
2018-11-05T07:53:59.560Z,769.00
2018-11-05T07:54:59.874Z,769.00
2018-11-05T07:56:00.320Z,769.00
2018-11-05T07:56:59.629Z,770.00
2018-11-05T07:58:01.061Z,770.00
2018-11-05T07:59:01.383Z,770.00
2018-11-05T08:00:02.038Z,769.00
2018-11-05T08:01:02.520Z,770.00
2018-11-05T08:02:02.542Z,770.00
2018-11-05T08:03:03.320Z,770.00
2018-11-05T08:04:02.653Z,771.00
2018-11-05T08:05:04.087Z,770.00
2018-11-05T08:06:04.466Z,770.00
2018-11-05T08:07:04.833Z,770.00
2018-11-05T08:08:05.174Z,770.00
2018-11-05T08:09:04.436Z,772.00
2018-11-05T08:10:06.046Z,770.00
2018-11-05T08:11:06.978Z,772.00
2018-11-05T08:12:07.349Z,773.00
2018-11-05T08:13:06.667Z,774.00
2018-11-05T08:14:08.397Z,773.00
2018-11-05T08:15:08.837Z,772.00
2018-11-05T08:16:09.379Z,773.00
2018-11-05T08:17:09.708Z,772.00
2018-11-05T08:18:10.032Z,772.00
2018-11-05T08:19:10.538Z,770.00
2018-11-05T08:20:10.812Z,770.00
2018-11-05T08:21:11.208Z,770.00
2018-11-05T08:22:11.489Z,771.00
2018-11-05T08:23:11.724Z,770.00
2018-11-05T08:24:12.170Z,771.00
2018-11-05T08:25:12.581Z,771.00
2018-11-05T08:26:12.958Z,772.00
2018-11-05T08:27:13.451Z,770.00
2018-11-05T08:28:13.711Z,770.00
2018-11-05T08:29:14.191Z,770.00
2018-11-05T08:30:14.640Z,769.00
2018-11-05T08:31:14.958Z,769.00
2018-11-05T08:32:15.460Z,770.00
2018-11-05T08:33:15.753Z,771.00
2018-11-05T08:34:16.189Z,771.00
2018-11-05T08:35:15.569Z,772.00
2018-11-05T08:36:16.988Z,774.00
2018-11-05T08:37:18.569Z,775.00
2018-11-05T08:38:18.314Z,774.00
2018-11-05T08:39:18.936Z,773.00
2018-11-05T08:40:19.334Z,772.00
2018-11-05T08:41:19.005Z,772.00
2018-11-05T08:42:20.470Z,771.00
2018-11-05T08:42:29.405Z,770.00
2018-11-05T08:43:30.843Z,770.00
2018-11-05T08:44:31.253Z,769.00
2018-11-05T08:45:31.609Z,769.00
2018-11-05T08:46:32.149Z,770.00
2018-11-05T08:47:32.413Z,769.00
2018-11-05T08:48:32.834Z,769.00
2018-11-05T08:49:33.205Z,769.00
2018-11-05T08:50:33.705Z,769.00
2018-11-05T08:51:33.206Z,769.00
2018-11-05T08:52:33.741Z,769.00
2018-11-05T08:53:35.151Z,769.00
2018-11-05T08:54:34.315Z,770.00
2018-11-05T08:55:35.593Z,770.00
2018-11-05T08:56:36.026Z,769.00
2018-11-05T08:57:36.730Z,770.00
2018-11-05T08:58:35.922Z,769.00
2018-11-05T08:59:37.184Z,769.00
2018-11-05T09:00:37.446Z,769.00
2018-11-05T09:01:37.811Z,769.00
2018-11-05T09:02:38.418Z,769.00
2018-11-05T09:03:38.857Z,769.00
2018-11-05T09:04:39.351Z,769.00
2018-11-05T09:05:38.840Z,769.00
2018-11-05T09:06:40.314Z,769.00
2018-11-05T09:07:40.631Z,769.00
2018-11-05T09:08:41.109Z,769.00
2018-11-05T09:09:41.393Z,768.00
2018-11-05T09:10:42.129Z,768.00
2018-11-05T09:11:41.351Z,768.00
2018-11-05T09:12:41.725Z,768.00
2018-11-05T09:13:43.339Z,768.00
2018-11-05T09:14:43.596Z,768.00
2018-11-05T09:15:44.020Z,768.00
2018-11-05T09:16:44.562Z,768.00
2018-11-05T09:17:44.982Z,768.00
2018-11-05T09:18:45.340Z,768.00
2018-11-05T09:19:45.549Z,768.00
2018-11-05T09:20:46.315Z,768.00
2018-11-05T09:21:46.077Z,768.00
2018-11-05T09:22:47.471Z,768.00
2018-11-05T09:23:47.819Z,768.00
2018-11-05T09:24:48.145Z,768.00
2018-11-05T09:25:48.764Z,768.00
2018-11-05T09:26:49.051Z,768.00
2018-11-05T09:27:49.446Z,768.00
2018-11-05T09:28:48.869Z,768.00
2018-11-05T09:29:49.074Z,768.00
2018-11-05T09:30:50.420Z,768.00
2018-11-05T09:31:50.822Z,768.00
2018-11-05T09:32:51.297Z,766.00
2018-11-05T09:33:52.186Z,766.00
2018-11-05T09:34:52.455Z,766.00
2018-11-05T09:35:01.050Z,766.00
2018-11-05T09:36:02.435Z,766.00
2018-11-05T09:37:02.837Z,766.00
2018-11-05T09:38:03.236Z,766.00
2018-11-05T09:39:03.564Z,766.00
2018-11-05T09:40:04.969Z,766.00
2018-11-05T09:41:04.596Z,766.00
2018-11-05T09:42:04.994Z,768.00
2018-11-05T09:43:04.408Z,768.00
2018-11-05T09:44:05.439Z,766.00
2018-11-05T09:45:05.718Z,766.00
2018-11-05T09:46:06.111Z,766.00
2018-11-05T09:47:06.462Z,766.00
2018-11-05T09:48:06.495Z,765.00
2018-11-05T09:49:07.147Z,765.00
2018-11-05T09:50:07.388Z,765.00
2018-11-05T09:51:07.684Z,765.00
2018-11-05T09:52:08.093Z,765.00
2018-11-05T09:53:08.587Z,765.00
2018-11-05T09:54:08.960Z,765.00
2018-11-05T09:55:09.250Z,765.00
2018-11-05T09:56:09.793Z,765.00
2018-11-05T09:57:10.136Z,766.00
2018-11-05T09:58:09.431Z,766.00
2018-11-05T09:59:10.825Z,766.00
2018-11-05T10:00:11.271Z,766.00
2018-11-05T10:01:11.664Z,766.00
2018-11-05T10:02:12.383Z,768.00
2018-11-05T10:03:11.958Z,768.00
2018-11-05T10:04:12.200Z,768.00
2018-11-05T10:05:12.667Z,768.00
2018-11-05T10:06:12.933Z,766.00
2018-11-05T10:07:14.338Z,766.00
2018-11-05T10:08:14.627Z,766.00
2018-11-05T10:09:14.936Z,765.00
2018-11-05T10:10:15.314Z,765.00
2018-11-05T10:11:14.681Z,765.00
2018-11-05T10:12:16.126Z,765.00
2018-11-05T10:13:16.418Z,765.00
2018-11-05T10:14:16.884Z,765.00
2018-11-05T10:15:17.328Z,766.00
2018-11-05T10:16:17.798Z,766.00
2018-11-05T10:17:18.222Z,766.00
2018-11-05T10:18:18.671Z,765.00
2018-11-05T10:19:19.265Z,765.00
2018-11-05T10:20:19.619Z,765.00
2018-11-05T10:21:21.416Z,765.00
2018-11-05T10:22:20.834Z,765.00
2018-11-05T10:23:21.151Z,764.00
2018-11-05T10:23:29.230Z,765.00
2018-11-05T10:24:30.534Z,765.00
2018-11-05T10:25:31.050Z,765.00
2018-11-05T10:26:31.419Z,765.00
2018-11-05T10:27:31.682Z,764.00
2018-11-05T10:28:32.494Z,764.00
2018-11-05T10:29:32.815Z,764.00
2018-11-05T10:30:33.331Z,764.00
2018-11-05T10:31:34.191Z,763.00
2018-11-05T10:32:34.683Z,764.00
2018-11-05T10:33:35.366Z,764.00
2018-11-05T10:34:34.566Z,764.00
2018-11-05T10:35:36.503Z,763.00
2018-11-05T10:36:37.063Z,765.00
2018-11-05T10:37:37.554Z,763.00
2018-11-05T10:38:36.889Z,763.00
2018-11-05T10:39:37.234Z,763.00
2018-11-05T10:40:38.763Z,763.00
2018-11-05T10:41:39.222Z,763.00
2018-11-05T10:42:39.766Z,763.00
2018-11-05T10:43:40.217Z,763.00
2018-11-05T10:44:41.125Z,763.00
2018-11-05T10:45:41.709Z,763.00
2018-11-05T10:46:42.574Z,764.00
2018-11-05T10:47:43.165Z,765.00
2018-11-05T10:48:43.510Z,764.00
2018-11-05T10:49:44.345Z,764.00
2018-11-05T10:50:44.923Z,765.00
2018-11-05T10:51:44.591Z,765.00
2018-11-05T10:52:44.863Z,766.00
2018-11-05T10:53:47.226Z,766.00
2018-11-05T10:54:47.628Z,765.00
2018-11-05T10:55:46.734Z,765.00
2018-11-05T10:56:47.197Z,765.00
2018-11-05T10:57:46.510Z,765.00
2018-11-05T10:58:47.958Z,764.00
2018-11-05T10:59:48.483Z,764.00
2018-11-05T11:00:48.746Z,763.00
2018-11-05T11:01:49.588Z,763.00
2018-11-05T11:02:50.211Z,764.00
2018-11-05T11:03:50.636Z,766.00
2018-11-05T11:04:49.934Z,766.00
2018-11-05T11:05:51.423Z,766.00
2018-11-05T11:06:51.776Z,768.00
2018-11-05T11:07:52.354Z,768.00
2018-11-05T11:08:52.814Z,766.00
2018-11-05T11:09:53.309Z,765.00
2018-11-05T11:10:53.986Z,766.00
2018-11-05T11:11:54.610Z,765.00
2018-11-05T11:12:54.988Z,768.00
2018-11-05T11:13:55.352Z,766.00
2018-11-05T11:14:55.999Z,766.00
2018-11-05T11:15:04.085Z,766.00
2018-11-05T11:16:04.551Z,766.00
2018-11-05T11:17:06.004Z,766.00
2018-11-05T11:18:06.288Z,768.00
2018-11-05T11:19:06.893Z,766.00
2018-11-05T11:20:07.244Z,766.00
2018-11-05T11:21:07.782Z,766.00
2018-11-05T11:22:08.472Z,766.00
2018-11-05T11:23:07.875Z,766.00
2018-11-05T11:24:09.362Z,766.00
2018-11-05T11:25:09.800Z,764.00
2018-11-05T11:26:10.750Z,765.00
2018-11-05T11:27:11.210Z,765.00
2018-11-05T11:28:11.566Z,766.00
2018-11-05T11:29:12.024Z,764.00
2018-11-05T11:30:11.264Z,766.00
2018-11-05T11:31:14.102Z,766.00
2018-11-05T11:32:13.382Z,765.00
2018-11-05T11:33:13.967Z,766.00
2018-11-05T11:34:13.429Z,768.00
2018-11-05T11:35:14.826Z,768.00
2018-11-05T11:36:15.185Z,768.00
2018-11-05T11:37:15.782Z,766.00
2018-11-05T11:38:15.179Z,766.00
2018-11-05T11:39:16.710Z,764.00
2018-11-05T11:40:16.939Z,766.00
2018-11-05T11:41:17.851Z,768.00
2018-11-05T11:42:18.515Z,766.00
2018-11-05T11:43:18.964Z,768.00
2018-11-05T11:44:19.455Z,768.00
2018-11-05T11:45:18.857Z,760.00
2018-11-05T11:46:19.894Z,753.00
2018-11-05T11:47:20.298Z,766.00
2018-11-05T11:48:21.018Z,766.00
2018-11-05T11:49:21.324Z,766.00
2018-11-05T11:50:22.119Z,765.00
2018-11-05T11:51:22.433Z,765.00
2018-11-05T11:52:23.347Z,765.00
2018-11-05T11:53:24.359Z,765.00
2018-11-05T11:54:23.444Z,765.00
2018-11-05T11:55:24.834Z,766.00
2018-11-05T11:56:26.248Z,765.00
2018-11-05T11:57:25.607Z,765.00
2018-11-05T11:58:26.031Z,749.00
2018-11-05T11:59:26.323Z,765.00
2018-11-05T12:00:26.585Z,765.00
2018-11-05T12:01:27.243Z,765.00
2018-11-05T12:02:26.798Z,766.00
2018-11-05T12:03:28.411Z,765.00
2018-11-05T12:04:29.034Z,766.00
2018-11-05T12:05:29.611Z,766.00
2018-11-05T12:06:28.812Z,765.00
2018-11-05T12:06:37.170Z,765.00
2018-11-05T12:07:38.499Z,765.00
2018-11-05T12:08:38.912Z,764.00
2018-11-05T12:09:39.576Z,763.00
2018-11-05T12:10:40.079Z,763.00
2018-11-05T12:11:40.597Z,763.00
2018-11-05T12:12:41.033Z,763.00
2018-11-05T12:13:41.697Z,763.00
2018-11-05T12:14:42.886Z,763.00
2018-11-05T12:15:42.138Z,763.00
2018-11-05T12:16:43.442Z,763.00
2018-11-05T12:17:44.482Z,762.00
2018-11-05T12:18:44.947Z,762.00
2018-11-05T12:19:45.329Z,763.00
2018-11-05T12:20:45.700Z,763.00
2018-11-05T12:21:46.305Z,762.00